Time;durP1;ratioP1;P1;durP2;ratioP2;P2;SDS_P1;SDS_P2;PMS_P1;PMS_P2;Temp;Humidity;BMP_temperature;BMP_pressure;BME280_temperature;BME280_humidity;BME280_pressure;Samples;Min_cycle;Max_cycle;Signal;HPM_P1;HPM_P2
2024/03/19 00:02:26;;;;;;;14.60;6.00;;;13.60;99.90;;;;;;5075889;28;20448;-56
2024/03/19 00:04:54;;;;;;;11.50;6.07;;;13.60;99.90;;;;;;5075562;28;20946;-56
2024/03/19 00:07:21;;;;;;;13.73;5.97;;;13.60;99.90;;;;;;5075816;28;20444;-56
2024/03/19 00:09:47;;;;;;;16.97;7.30;;;13.60;99.90;;;;;;5075715;28;20452;-56
2024/03/19 00:12:14;;;;;;;15.83;6.13;;;13.70;99.90;;;;;;5075632;28;20908;-55
2024/03/19 00:14:41;;;;;;;17.17;6.83;;;13.70;99.90;;;;;;5075683;28;20445;-56
2024/03/19 00:17:08;;;;;;;13.97;6.17;;;13.70;99.90;;;;;;5075458;28;20520;-56
2024/03/19 00:19:35;;;;;;;16.20;6.87;;;13.70;99.90;;;;;;5075573;28;20847;-56
2024/03/19 00:22:03;;;;;;;11.93;6.77;;;13.70;99.90;;;;;;5075511;28;20444;-56
2024/03/19 00:24:30;;;;;;;19.50;7.47;;;13.70;99.90;;;;;;5075498;28;20444;-56
2024/03/19 00:26:57;;;;;;;16.97;7.20;;;13.70;99.90;;;;;;5075444;28;20445;-56
2024/03/19 00:29:23;;;;;;;14.23;7.67;;;13.80;99.90;;;;;;5075346;28;20464;-56
2024/03/19 00:31:50;;;;;;;16.27;7.10;;;13.70;99.90;;;;;;5075359;28;20451;-56
2024/03/19 00:34:17;;;;;;;14.17;6.63;;;13.70;99.90;;;;;;5075229;28;20444;-56
2024/03/19 00:36:44;;;;;;;14.47;6.50;;;13.70;99.90;;;;;;5075200;28;20444;-56
2024/03/19 00:39:12;;;;;;;23.57;7.53;;;13.70;99.90;;;;;;5075056;28;20889;-56
2024/03/19 00:41:41;;;;;;;11.90;6.50;;;13.70;99.90;;;;;;5075200;28;20445;-56
2024/03/19 00:44:08;;;;;;;12.00;7.90;;;13.70;99.90;;;;;;5075124;28;20448;-56
2024/03/19 00:46:35;;;;;;;21.17;7.10;;;13.60;99.90;;;;;;5074866;28;20949;-56
2024/03/19 00:49:02;;;;;;;20.53;7.30;;;13.60;99.90;;;;;;5073937;28;20461;-56
2024/03/19 00:51:29;;;;;;;21.80;7.20;;;13.60;99.90;;;;;;5075005;28;20460;-56
2024/03/19 00:53:56;;;;;;;17.40;7.13;;;13.50;99.90;;;;;;5074360;28;20535;-56
2024/03/19 00:56:24;;;;;;;19.90;6.60;;;13.50;99.90;;;;;;5073994;28;20951;-56
2024/03/19 00:58:51;;;;;;;14.57;7.13;;;13.40;99.90;;;;;;5074620;28;20480;-56
2024/03/19 01:01:18;;;;;;;22.73;7.60;;;13.40;99.90;;;;;;5074702;28;20448;-56
2024/03/19 01:03:45;;;;;;;19.37;7.13;;;13.40;99.90;;;;;;5074720;28;20455;-56
2024/03/19 01:06:12;;;;;;;12.13;6.90;;;13.40;99.90;;;;;;5074627;28;20447;-56
2024/03/19 01:08:39;;;;;;;15.17;7.50;;;13.40;99.90;;;;;;5074216;28;20471;-56
2024/03/19 01:11:06;;;;;;;9.97;7.37;;;13.40;99.90;;;;;;5074544;28;20463;-56
2024/03/19 01:13:34;;;;;;;19.13;7.80;;;13.30;99.90;;;;;;5074558;28;20817;-56
2024/03/19 01:16:00;;;;;;;12.73;6.80;;;13.40;99.90;;;;;;5074525;28;20451;-56
2024/03/19 01:18:27;;;;;;;16.13;7.17;;;13.40;99.90;;;;;;5074196;28;20562;-56
2024/03/19 01:20:54;;;;;;;24.63;7.60;;;13.30;99.90;;;;;;5074070;28;20445;-56
2024/03/19 01:23:21;;;;;;;17.70;7.47;;;13.30;99.90;;;;;;5074209;28;20540;-56
2024/03/19 01:25:48;;;;;;;15.40;7.57;;;13.30;99.90;;;;;;5074224;28;20494;-56
2024/03/19 01:28:15;;;;;;;11.57;6.53;;;13.30;99.90;;;;;;5073858;28;20459;-56
2024/03/19 01:30:43;;;;;;;13.63;6.73;;;13.30;99.90;;;;;;5073812;28;20961;-56
2024/03/19 01:33:10;;;;;;;16.53;7.07;;;13.30;99.90;;;;;;5073806;28;20498;-56
2024/03/19 01:35:37;;;;;;;11.27;7.00;;;13.20;99.90;;;;;;5074031;28;20514;-56
2024/03/19 01:38:04;;;;;;;14.97;7.10;;;13.20;99.90;;;;;;5073887;28;20922;-56
2024/03/19 01:40:31;;;;;;;15.57;7.40;;;13.20;99.90;;;;;;5073565;28;20444;-56
2024/03/19 01:42:58;;;;;;;14.00;7.47;;;13.20;99.90;;;;;;5073886;28;20502;-56
2024/03/19 01:45:25;;;;;;;15.00;6.80;;;13.10;99.90;;;;;;5073482;28;20459;-56
2024/03/19 01:47:53;;;;;;;13.97;6.83;;;13.00;99.90;;;;;;5073744;28;20471;-56
2024/03/19 01:50:20;;;;;;;12.90;6.23;;;13.00;99.90;;;;;;5073822;28;20447;-56
2024/03/19 01:52:51;;;;;;;14.60;6.70;;;13.00;99.90;;;;;;5073546;28;20962;-56
2024/03/19 01:55:21;;;;;;;10.40;6.83;;;13.00;99.90;;;;;;5073813;28;20432;-56
2024/03/19 01:57:48;;;;;;;14.50;7.07;;;13.00;99.90;;;;;;5073299;28;20484;-56
2024/03/19 02:00:16;;;;;;;15.80;7.17;;;12.90;99.90;;;;;;5073244;28;20787;-56
2024/03/19 02:02:43;;;;;;;20.07;7.83;;;12.90;99.90;;;;;;5073320;28;20532;-56
2024/03/19 02:05:11;;;;;;;18.83;6.90;;;12.90;99.90;;;;;;5073235;28;20798;-56
2024/03/19 02:07:37;;;;;;;22.10;7.40;;;12.90;99.90;;;;;;5073302;28;20476;-56
2024/03/19 02:10:06;;;;;;;28.30;8.50;;;12.80;99.90;;;;;;5073525;28;20477;-56
2024/03/19 02:12:33;;;;;;;21.03;8.53;;;12.80;99.90;;;;;;5073601;28;20205;-56
2024/03/19 02:15:00;;;;;;;21.47;8.03;;;12.80;99.90;;;;;;5073468;28;20448;-56
2024/03/19 02:17:27;;;;;;;24.63;8.00;;;12.80;99.90;;;;;;5073361;28;20445;-56
2024/03/19 02:19:53;;;;;;;36.00;9.60;;;12.80;99.90;;;;;;5073535;28;20560;-56
2024/03/19 02:22:26;;;;;;;23.43;8.80;;;12.80;99.90;;;;;;5073478;28;20447;-56
2024/03/19 02:24:52;;;;;;;22.17;9.30;;;12.80;99.90;;;;;;5073464;28;20431;-56
2024/03/19 02:27:19;;;;;;;30.50;9.47;;;12.90;99.90;;;;;;5072968;28;20437;-56
2024/03/19 02:29:46;;;;;;;21.50;8.20;;;12.80;99.90;;;;;;5072861;28;20464;-56
2024/03/19 02:32:13;;;;;;;18.57;7.77;;;12.80;99.90;;;;;;5073247;28;20491;-56
2024/03/19 02:34:40;;;;;;;16.27;7.60;;;12.80;99.90;;;;;;5073186;28;20457;-56
2024/03/19 02:37:07;;;;;;;22.17;8.90;;;12.80;99.90;;;;;;5073149;28;20546;-56
2024/03/19 02:39:37;;;;;;;20.63;8.20;;;12.80;99.90;;;;;;5073150;28;20490;-56
2024/03/19 02:42:04;;;;;;;18.10;7.63;;;12.80;99.90;;;;;;5073145;28;20449;-56
2024/03/19 02:44:31;;;;;;;15.13;7.83;;;12.80;99.90;;;;;;5073153;28;20455;-56
2024/03/19 02:46:58;;;;;;;16.50;7.60;;;12.90;99.90;;;;;;5073328;28;20498;-56
2024/03/19 02:49:25;;;;;;;18.20;7.03;;;12.90;99.90;;;;;;5073133;28;20461;-56
2024/03/19 02:51:52;;;;;;;16.77;7.17;;;12.90;99.90;;;;;;5072912;28;20455;-56
2024/03/19 02:54:19;;;;;;;10.57;7.13;;;12.90;99.90;;;;;;5072856;28;20942;-56
2024/03/19 02:56:47;;;;;;;14.77;7.03;;;12.90;99.90;;;;;;5072964;28;20493;-56
2024/03/19 02:59:13;;;;;;;17.17;7.00;;;12.90;99.90;;;;;;5072874;28;20491;-56
2024/03/19 03:01:40;;;;;;;14.53;6.67;;;12.90;99.90;;;;;;5073057;28;20455;-56
2024/03/19 03:04:07;;;;;;;17.10;7.10;;;12.90;99.90;;;;;;5073045;28;20444;-56
2024/03/19 03:06:34;;;;;;;17.20;7.03;;;12.90;99.90;;;;;;5073110;28;20455;-56
2024/03/19 03:09:00;;;;;;;12.87;7.20;;;12.90;99.90;;;;;;5072991;28;20464;-56
2024/03/19 03:11:27;;;;;;;13.53;7.50;;;12.90;99.90;;;;;;5072625;28;21002;-56
2024/03/19 03:13:55;;;;;;;13.07;7.23;;;13.00;99.90;;;;;;5076929;28;20527;-56
2024/03/19 03:16:23;;;;;;;11.23;6.80;;;12.90;99.90;;;;;;5076862;28;20441;-56
2024/03/19 03:18:50;;;;;;;16.93;7.67;;;12.90;99.90;;;;;;5076662;28;20484;-56
2024/03/19 03:21:17;;;;;;;18.63;7.90;;;13.00;99.90;;;;;;5076756;28;20450;-56
2024/03/19 03:23:44;;;;;;;19.90;8.37;;;12.90;99.90;;;;;;5076320;28;20959;-56
2024/03/19 03:26:11;;;;;;;17.73;8.13;;;12.90;99.90;;;;;;5076273;28;20525;-56
2024/03/19 03:28:38;;;;;;;14.50;7.33;;;12.90;99.90;;;;;;5076425;28;20457;-56
2024/03/19 03:31:06;;;;;;;23.00;7.60;;;13.00;99.90;;;;;;5076567;28;20440;-56
2024/03/19 03:33:33;;;;;;;15.07;7.43;;;12.90;99.90;;;;;;5076458;28;20451;-56
2024/03/19 03:36:00;;;;;;;11.20;6.90;;;13.00;99.90;;;;;;5076542;28;20444;-56
2024/03/19 03:38:27;;;;;;;17.53;7.67;;;13.00;99.90;;;;;;5076384;28;20490;-56
2024/03/19 03:40:54;;;;;;;19.97;9.17;;;13.00;99.90;;;;;;5076405;28;20441;-56
2024/03/19 03:43:20;;;;;;;17.37;7.70;;;13.00;99.90;;;;;;5076401;28;20444;-56
2024/03/19 03:45:47;;;;;;;19.10;8.27;;;13.00;99.90;;;;;;5077194;28;20440;-56
2024/03/19 03:48:15;;;;;;;13.40;7.90;;;13.00;99.90;;;;;;5075979;28;20468;-56
2024/03/19 03:50:42;;;;;;;13.20;7.13;;;13.00;99.90;;;;;;5076545;28;20811;-56
2024/03/19 03:53:09;;;;;;;11.90;7.53;;;12.90;99.90;;;;;;5075989;28;20953;-56
2024/03/19 03:55:36;;;;;;;12.90;7.63;;;12.90;99.90;;;;;;5075755;28;20448;-56
2024/03/19 03:58:03;;;;;;;13.33;8.03;;;12.90;99.90;;;;;;5075889;28;20464;-56
2024/03/19 04:00:32;;;;;;;15.70;7.43;;;12.90;99.90;;;;;;5076060;28;20444;-56
2024/03/19 04:03:00;;;;;;;14.67;7.20;;;12.90;99.90;;;;;;5075655;28;20444;-56
2024/03/19 04:05:28;;;;;;;12.93;6.97;;;12.90;99.90;;;;;;5075542;28;20965;-56
2024/03/19 04:07:54;;;;;;;13.57;7.20;;;12.90;99.90;;;;;;5075788;28;20461;-56
2024/03/19 04:10:21;;;;;;;14.03;7.03;;;12.80;99.90;;;;;;5075532;28;20451;-56
2024/03/19 04:12:49;;;;;;;13.50;7.67;;;12.80;99.90;;;;;;5075526;28;20954;-56
2024/03/19 04:15:16;;;;;;;14.83;8.07;;;12.80;99.90;;;;;;5075713;28;20481;-56
2024/03/19 04:17:43;;;;;;;11.43;6.77;;;12.80;99.90;;;;;;5075283;28;20447;-56
2024/03/19 04:20:11;;;;;;;15.37;7.30;;;12.70;99.90;;;;;;5075569;28;20531;-56
2024/03/19 04:22:39;;;;;;;14.17;7.33;;;12.70;99.90;;;;;;5075558;28;20455;-56
2024/03/19 04:25:07;;;;;;;15.53;8.20;;;12.70;99.90;;;;;;5074305;28;20445;-56
2024/03/19 04:27:34;;;;;;;18.77;7.83;;;12.60;99.90;;;;;;5075354;28;20506;-56
2024/03/19 04:30:01;;;;;;;8.70;6.07;;;12.60;99.90;;;;;;5075446;28;20441;-56
2024/03/19 04:32:27;;;;;;;20.93;8.00;;;12.60;99.90;;;;;;5075396;28;20441;-56
2024/03/19 04:34:54;;;;;;;9.90;6.30;;;12.50;99.90;;;;;;5075330;28;20451;-56
2024/03/19 04:37:21;;;;;;;11.80;6.90;;;12.50;99.90;;;;;;5075238;28;20441;-56
2024/03/19 04:39:49;;;;;;;10.03;6.90;;;12.50;99.90;;;;;;5074732;28;20488;-56
2024/03/19 04:42:18;;;;;;;10.93;6.80;;;12.40;99.90;;;;;;5075170;28;20440;-56
2024/03/19 04:44:46;;;;;;;12.93;7.43;;;12.40;99.90;;;;;;5074807;28;20440;-56
2024/03/19 04:47:16;;;;;;;11.40;7.47;;;12.40;99.90;;;;;;5074724;28;21079;-57
2024/03/19 04:49:43;;;;;;;12.67;7.37;;;12.30;99.90;;;;;;5074931;28;20457;-56
2024/03/19 04:52:10;;;;;;;11.10;7.63;;;12.30;99.90;;;;;;5075003;28;20820;-56
2024/03/19 04:54:37;;;;;;;13.17;8.80;;;12.30;99.90;;;;;;5075035;28;20445;-56
2024/03/19 04:57:06;;;;;;;17.40;8.47;;;12.30;99.90;;;;;;5074575;28;20475;-56
2024/03/19 04:59:32;;;;;;;16.50;8.20;;;12.30;99.90;;;;;;5074589;28;20493;-56
2024/03/19 05:01:59;;;;;;;17.97;9.00;;;12.20;99.90;;;;;;5075548;28;20451;-56
2024/03/19 05:04:26;;;;;;;12.57;8.17;;;12.20;99.90;;;;;;5074729;28;20449;-56
2024/03/19 05:06:53;;;;;;;14.10;8.30;;;12.20;99.90;;;;;;5074646;28;20494;-56
2024/03/19 05:09:20;;;;;;;15.03;7.83;;;12.20;99.90;;;;;;5074412;28;20456;-56
2024/03/19 05:11:47;;;;;;;10.00;7.53;;;12.10;99.90;;;;;;5075235;28;20798;-56
2024/03/19 05:14:16;;;;;;;8.40;7.50;;;12.10;99.90;;;;;;5074463;28;20445;-56
2024/03/19 05:16:42;;;;;;;11.30;7.20;;;12.10;99.90;;;;;;5074153;28;20452;-56
2024/03/19 05:19:09;;;;;;;14.87;6.70;;;12.10;99.90;;;;;;5073924;28;20520;-56
2024/03/19 05:21:37;;;;;;;15.30;6.90;;;12.10;99.90;;;;;;5074297;28;20440;-56
2024/03/19 05:24:04;;;;;;;15.73;7.30;;;12.10;99.90;;;;;;5074259;28;20455;-56
2024/03/19 05:26:31;;;;;;;14.90;9.03;;;12.10;99.90;;;;;;5074014;28;20449;-56
2024/03/19 05:28:58;;;;;;;12.20;6.73;;;12.20;99.90;;;;;;5074080;28;20463;-56
2024/03/19 05:31:27;;;;;;;13.77;7.20;;;12.10;99.90;;;;;;5073995;28;20451;-56
2024/03/19 05:33:55;;;;;;;12.40;6.23;;;12.20;99.90;;;;;;5074181;28;20441;-56
2024/03/19 05:36:23;;;;;;;16.40;8.40;;;12.10;99.90;;;;;;5073380;28;20805;-56
2024/03/19 05:38:49;;;;;;;10.53;7.70;;;12.10;99.90;;;;;;5073873;28;20555;-56
2024/03/19 05:41:16;;;;;;;10.53;7.10;;;12.10;99.90;;;;;;5074035;28;20441;-56
2024/03/19 05:43:44;;;;;;;14.23;7.90;;;12.10;99.90;;;;;;5073646;28;21016;-56
2024/03/19 05:46:11;;;;;;;11.87;7.43;;;12.00;99.90;;;;;;5073879;28;20445;-56
2024/03/19 05:48:39;;;;;;;23.10;11.30;;;12.00;99.90;;;;;;5073722;28;20460;-56
2024/03/19 05:51:07;;;;;;;17.50;11.73;;;12.00;99.90;;;;;;5073591;28;20452;-56
2024/03/19 05:53:34;;;;;;;23.03;11.40;;;11.90;99.90;;;;;;5073773;28;20540;-56
2024/03/19 05:56:01;;;;;;;12.67;8.07;;;11.90;99.90;;;;;;5073616;28;20463;-56
2024/03/19 05:58:29;;;;;;;12.73;7.50;;;12.00;99.90;;;;;;5073697;28;20703;-56
2024/03/19 06:00:58;;;;;;;12.70;6.63;;;12.00;99.90;;;;;;5073608;28;20590;-56
2024/03/19 06:03:24;;;;;;;17.03;7.10;;;12.00;99.90;;;;;;5073701;28;20452;-56
2024/03/19 06:05:55;;;;;;;9.73;7.50;;;12.00;99.90;;;;;;5073529;28;20444;-56
2024/03/19 06:08:22;;;;;;;11.73;7.00;;;12.00;99.90;;;;;;5073599;28;20465;-56
2024/03/19 06:10:49;;;;;;;11.13;6.70;;;12.00;99.90;;;;;;5073231;28;20794;-56
2024/03/19 06:13:16;;;;;;;11.03;8.10;;;12.00;99.90;;;;;;5073363;28;20787;-56
2024/03/19 06:15:42;;;;;;;14.30;8.00;;;12.00;99.90;;;;;;5073610;28;20437;-56
2024/03/19 06:18:09;;;;;;;12.27;7.17;;;12.00;99.90;;;;;;5073518;28;20464;-56
2024/03/19 06:20:36;;;;;;;13.33;9.00;;;12.00;99.90;;;;;;5073401;28;20476;-56
2024/03/19 06:23:05;;;;;;;10.40;7.60;;;12.00;99.90;;;;;;5073392;28;20502;-56
2024/03/19 06:25:34;;;;;;;11.50;8.20;;;12.00;99.90;;;;;;5073380;28;20528;-56
2024/03/19 06:28:01;;;;;;;10.93;7.80;;;12.10;99.90;;;;;;5073271;28;20464;-56
2024/03/19 06:30:30;;;;;;;12.77;8.07;;;12.10;99.90;;;;;;5073529;28;20441;-56
2024/03/19 06:32:57;;;;;;;12.47;7.63;;;12.20;99.90;;;;;;5073248;28;20452;-56
2024/03/19 06:35:24;;;;;;;16.63;8.00;;;12.20;99.90;;;;;;5073429;28;20491;-56
2024/03/19 06:37:51;;;;;;;16.03;8.60;;;12.20;99.90;;;;;;5072908;28;20947;-56
2024/03/19 06:40:21;;;;;;;10.93;7.67;;;12.30;99.90;;;;;;5072900;28;21002;-56
2024/03/19 06:42:47;;;;;;;14.57;8.27;;;12.30;99.90;;;;;;5073331;28;20527;-56
2024/03/19 06:45:14;;;;;;;9.83;6.67;;;12.30;99.90;;;;;;5073262;28;20445;-56
2024/03/19 06:47:41;;;;;;;11.70;6.90;;;12.40;99.90;;;;;;5075257;28;20889;-56
2024/03/19 06:50:13;;;;;;;8.13;6.37;;;12.40;99.90;;;;;;5077270;28;20433;-56
2024/03/19 06:52:42;;;;;;;11.20;6.10;;;12.40;99.90;;;;;;5077374;28;20512;-56
2024/03/19 06:55:09;;;;;;;15.53;6.43;;;12.40;99.90;;;;;;5076882;28;20448;-55
2024/03/19 06:57:37;;;;;;;10.10;6.33;;;12.40;99.90;;;;;;5077347;28;20460;-56
2024/03/19 07:00:13;;;;;;;8.97;6.90;;;12.50;99.90;;;;;;5077063;28;20516;-56
2024/03/19 07:02:40;;;;;;;13.27;7.03;;;12.50;99.90;;;;;;5077175;28;20869;-56
2024/03/19 07:05:08;;;;;;;12.13;7.73;;;12.50;99.90;;;;;;5076721;28;20938;-56
2024/03/19 07:07:35;;;;;;;8.83;6.93;;;12.50;99.90;;;;;;5076971;28;20444;-56
2024/03/19 07:10:02;;;;;;;12.57;7.67;;;12.60;99.90;;;;;;5077446;28;20441;-56
2024/03/19 07:12:29;;;;;;;14.10;7.83;;;12.60;99.90;;;;;;5076896;28;20449;-56
2024/03/19 07:14:59;;;;;;;11.67;8.43;;;12.60;99.90;;;;;;5076854;28;20440;-56
2024/03/19 07:17:26;;;;;;;10.70;7.63;;;12.60;99.90;;;;;;5076843;28;20862;-56
2024/03/19 07:19:54;;;;;;;13.63;7.77;;;12.70;99.90;;;;;;5076629;28;20484;-56
2024/03/19 07:22:21;;;;;;;7.93;6.90;;;12.70;99.90;;;;;;5076361;28;20976;-56
2024/03/19 07:24:48;;;;;;;13.67;7.77;;;12.80;99.90;;;;;;5076665;28;20450;-56
2024/03/19 07:27:14;;;;;;;12.77;8.63;;;12.80;99.90;;;;;;5076567;28;20466;-56
2024/03/19 07:29:42;;;;;;;10.43;7.47;;;12.90;99.90;;;;;;5076156;28;20465;-56
2024/03/19 07:32:10;;;;;;;12.13;7.90;;;12.90;99.90;;;;;;5076419;28;20462;-56
2024/03/19 07:34:38;;;;;;;14.13;7.70;;;12.90;99.90;;;;;;5076515;28;20449;-56
2024/03/19 07:37:07;;;;;;;10.77;7.33;;;13.00;99.90;;;;;;5076093;28;20448;-56
2024/03/19 07:39:33;;;;;;;13.00;7.10;;;13.00;99.90;;;;;;5076235;28;20535;-56
2024/03/19 07:42:00;;;;;;;14.27;7.93;;;13.10;99.90;;;;;;5076366;28;20444;-56
2024/03/19 07:44:27;;;;;;;8.90;6.80;;;13.10;99.90;;;;;;5076274;28;20502;-56
2024/03/19 07:46:54;;;;;;;17.83;7.90;;;13.10;99.90;;;;;;5075902;28;20445;-56
2024/03/19 07:49:22;;;;;;;10.00;7.10;;;13.10;99.90;;;;;;5076121;28;20837;-56
2024/03/19 07:51:48;;;;;;;10.70;7.27;;;13.20;99.90;;;;;;5076150;28;20535;-56
2024/03/19 07:54:15;;;;;;;15.17;6.60;;;13.20;99.90;;;;;;5076132;28;20451;-56
2024/03/19 07:56:43;;;;;;;10.13;7.40;;;13.20;99.90;;;;;;5075564;28;20502;-56
2024/03/19 07:59:11;;;;;;;10.70;6.43;;;13.20;99.90;;;;;;5075648;28;20472;-55
2024/03/19 08:01:38;;;;;;;8.93;6.10;;;13.20;99.90;;;;;;5075915;28;20480;-56
2024/03/19 08:04:07;;;;;;;12.57;7.00;;;13.30;99.90;;;;;;5075941;28;20441;-56
2024/03/19 08:06:35;;;;;;;15.27;6.80;;;13.30;99.90;;;;;;5075622;28;20452;-56
2024/03/19 08:09:03;;;;;;;7.37;6.00;;;13.30;99.90;;;;;;5075760;28;20469;-55
2024/03/19 08:11:30;;;;;;;11.00;7.27;;;13.40;99.90;;;;;;5075744;28;20444;-56
2024/03/19 08:13:57;;;;;;;8.37;7.10;;;13.40;99.90;;;;;;5075425;28;20832;-56
2024/03/19 08:16:24;;;;;;;10.60;6.77;;;13.50;99.90;;;;;;5075723;28;20447;-56
2024/03/19 08:18:52;;;;;;;15.83;6.63;;;13.50;99.90;;;;;;5075596;28;20464;-56
2024/03/19 08:21:20;;;;;;;13.40;8.27;;;13.50;99.90;;;;;;5075525;28;20481;-56
2024/03/19 08:23:48;;;;;;;15.07;7.37;;;13.50;99.90;;;;;;5075641;28;20526;-56
2024/03/19 08:26:15;;;;;;;9.00;6.83;;;13.60;99.90;;;;;;5075168;28;20916;-56
2024/03/19 08:28:42;;;;;;;10.90;7.43;;;13.60;99.90;;;;;;5075025;28;21029;-56
2024/03/19 08:31:10;;;;;;;9.27;7.13;;;13.70;99.90;;;;;;5075406;28;20786;-56
2024/03/19 08:33:37;;;;;;;12.53;6.57;;;13.70;99.90;;;;;;5075370;28;20444;-55
2024/03/19 08:36:05;;;;;;;9.40;6.77;;;13.80;99.90;;;;;;5075372;28;20451;-56
2024/03/19 08:38:31;;;;;;;11.10;7.00;;;13.90;99.90;;;;;;5074964;28;20464;-56
2024/03/19 08:41:00;;;;;;;13.93;6.80;;;14.00;99.90;;;;;;5075253;28;20481;-56
2024/03/19 08:43:27;;;;;;;8.80;7.33;;;14.20;99.90;;;;;;5074989;28;20951;-56
2024/03/19 08:45:54;;;;;;;9.50;6.47;;;14.40;99.90;;;;;;5075237;28;20498;-56
2024/03/19 08:48:21;;;;;;;7.63;6.83;;;14.60;99.90;;;;;;5075028;28;20519;-56
2024/03/19 08:50:48;;;;;;;8.87;5.97;;;14.90;99.90;;;;;;5074949;28;20433;-56
2024/03/19 08:53:15;;;;;;;11.43;6.70;;;15.10;99.90;;;;;;5074735;28;20612;-56
2024/03/19 08:55:42;;;;;;;10.63;6.10;;;15.40;99.90;;;;;;5075062;28;20451;-56
2024/03/19 08:58:10;;;;;;;10.43;6.63;;;15.60;99.90;;;;;;5074621;28;20970;-56
2024/03/19 09:00:41;;;;;;;13.53;6.30;;;15.80;99.90;;;;;;5074853;28;20841;-56
2024/03/19 09:03:08;;;;;;;11.33;6.13;;;16.10;99.70;;;;;;5074890;28;20453;-56
2024/03/19 09:05:35;;;;;;;8.50;6.00;;;16.30;99.60;;;;;;5075012;28;20441;-56
2024/03/19 09:08:02;;;;;;;11.20;6.37;;;16.60;98.90;;;;;;5074848;28;20471;-55
2024/03/19 09:10:29;;;;;;;10.23;6.60;;;16.80;98.40;;;;;;5074068;28;20440;-56
2024/03/19 09:12:56;;;;;;;9.10;6.60;;;17.00;98.10;;;;;;5074822;28;20532;-56
2024/03/19 09:15:26;;;;;;;11.20;6.03;;;17.20;97.60;;;;;;5074346;28;20445;-56
2024/03/19 09:17:54;;;;;;;11.90;6.47;;;17.40;96.90;;;;;;5074110;28;20923;-56
2024/03/19 09:20:22;;;;;;;11.10;6.60;;;17.50;96.50;;;;;;5074501;28;20484;-56
2024/03/19 09:22:49;;;;;;;12.30;6.80;;;17.70;96.10;;;;;;5074263;28;20440;-56
2024/03/19 09:25:16;;;;;;;10.33;6.27;;;17.90;95.70;;;;;;5074620;28;20445;-56
2024/03/19 09:27:43;;;;;;;9.63;7.00;;;18.00;95.20;;;;;;5074018;28;20942;-56
2024/03/19 09:30:12;;;;;;;13.90;6.30;;;18.20;95.00;;;;;;5074289;28;20436;-56
2024/03/19 09:32:40;;;;;;;14.73;6.40;;;18.30;94.70;;;;;;5074210;28;20476;-56
2024/03/19 09:35:08;;;;;;;10.13;6.10;;;18.50;94.40;;;;;;5074275;28;20441;-56
2024/03/19 09:37:36;;;;;;;9.53;6.23;;;18.60;94.10;;;;;;5074178;28;20445;-56
2024/03/19 09:40:03;;;;;;;14.20;6.00;;;18.60;93.70;;;;;;5073946;28;20453;-56
2024/03/19 09:42:30;;;;;;;10.07;6.27;;;18.70;93.40;;;;;;5074058;28;20444;-56
2024/03/19 09:44:58;;;;;;;9.67;7.07;;;18.70;93.20;;;;;;5074036;28;20446;-56
2024/03/19 09:47:26;;;;;;;8.77;5.23;;;18.70;92.50;;;;;;5073548;28;20476;-56
2024/03/19 09:49:54;;;;;;;8.37;5.67;;;18.80;92.30;;;;;;5073814;28;20467;-56
2024/03/19 09:52:22;;;;;;;13.00;6.47;;;18.90;92.40;;;;;;5073892;28;20455;-56
2024/03/19 09:54:49;;;;;;;9.67;5.57;;;19.00;92.30;;;;;;5073949;28;20444;-56
2024/03/19 09:57:19;;;;;;;10.17;4.90;;;19.10;92.10;;;;;;5073270;28;20471;-56
2024/03/19 09:59:46;;;;;;;7.23;4.40;;;19.20;91.80;;;;;;5073628;28;20548;-56
2024/03/19 10:02:17;;;;;;;10.33;4.60;;;19.30;91.50;;;;;;5073597;28;20484;-56
2024/03/19 10:04:45;;;;;;;10.53;4.93;;;19.50;91.10;;;;;;5073798;28;20447;-56
2024/03/19 10:07:13;;;;;;;8.33;4.90;;;19.50;90.60;;;;;;5073567;28;20900;-56
2024/03/19 10:09:44;;;;;;;7.00;4.40;;;19.60;90.20;;;;;;5073412;28;20461;-56
2024/03/19 10:12:11;;;;;;;6.67;4.10;;;19.70;90.00;;;;;;5073502;28;20459;-56
2024/03/19 10:14:38;;;;;;;9.50;4.63;;;19.80;89.30;;;;;;5073528;28;20498;-56
2024/03/19 10:17:06;;;;;;;7.73;4.43;;;19.80;88.30;;;;;;5073535;28;20446;-56
2024/03/19 10:19:34;;;;;;;7.83;4.30;;;19.90;87.70;;;;;;5073084;28;20475;-56
2024/03/19 10:22:00;;;;;;;7.70;4.23;;;19.90;87.40;;;;;;5073420;28;20500;-56
2024/03/19 10:24:29;;;;;;;9.77;3.87;;;19.90;87.00;;;;;;5073092;28;20795;-56
2024/03/19 10:26:55;;;;;;;7.73;4.00;;;20.00;86.90;;;;;;5073147;28;20939;-56
2024/03/19 10:29:22;;;;;;;9.17;4.40;;;20.10;84.90;;;;;;5073240;28;20468;-56
2024/03/19 10:31:49;;;;;;;6.53;3.77;;;20.20;83.00;;;;;;5073173;28;20532;-56
2024/03/19 10:34:18;;;;;;;8.80;3.47;;;20.20;80.90;;;;;;5073035;28;20954;-55
2024/03/19 10:36:48;;;;;;;6.43;3.80;;;20.30;80.80;;;;;;5073265;28;20451;-56
2024/03/19 10:39:16;;;;;;;6.63;3.33;;;20.40;79.50;;;;;;5073102;28;20461;-56
2024/03/19 10:41:46;;;;;;;5.00;2.60;;;20.60;79.10;;;;;;5072951;28;20476;-56
2024/03/19 10:44:16;;;;;;;7.30;3.23;;;20.80;78.60;;;;;;5073919;28;20555;-56
2024/03/19 10:46:43;;;;;;;9.57;3.60;;;21.30;78.70;;;;;;5072978;28;20866;-56
2024/03/19 10:49:14;;;;;;;9.20;3.33;;;21.80;78.00;;;;;;5073088;28;20456;-56
2024/03/19 10:51:41;;;;;;;6.60;3.13;;;22.30;74.10;;;;;;5073101;28;20425;-56
2024/03/19 10:54:09;;;;;;;7.10;3.10;;;22.90;72.60;;;;;;5073176;28;20437;-56
2024/03/19 10:56:35;;;;;;;5.47;3.43;;;23.40;69.60;;;;;;5072871;28;20449;-56
2024/03/19 10:59:04;;;;;;;10.00;3.90;;;23.70;67.00;;;;;;5072660;28;20464;-56
2024/03/19 11:01:32;;;;;;;5.17;3.00;;;23.80;61.00;;;;;;5072921;28;20480;-56
2024/03/19 11:04:03;;;;;;;9.57;3.10;;;23.90;59.60;;;;;;5072973;28;20452;-56
2024/03/19 11:06:30;;;;;;;5.20;2.93;;;24.10;60.20;;;;;;5072728;28;20429;-56
2024/03/19 11:08:57;;;;;;;6.43;2.57;;;24.60;58.70;;;;;;5072568;28;20852;-56
2024/03/19 11:11:35;;;;;;;6.07;3.50;;;25.10;56.10;;;;;;5072987;28;20486;-56
2024/03/19 11:14:04;;;;;;;4.90;3.20;;;25.30;52.00;;;;;;5073036;28;20420;-56
2024/03/19 11:16:38;;;;;;;7.73;3.60;;;25.20;51.40;;;;;;5072968;28;20456;-56
2024/03/19 11:19:17;;;;;;;4.60;3.13;;;25.00;50.80;;;;;;5072883;28;20471;-56
2024/03/19 11:21:45;;;;;;;6.77;3.27;;;25.00;51.20;;;;;;5072923;28;20518;-56
2024/03/19 11:24:22;;;;;;;8.47;2.40;;;25.10;51.00;;;;;;5072850;28;20456;-56
2024/03/19 11:26:53;;;;;;;5.90;2.90;;;25.20;50.00;;;;;;5072926;28;20425;-56
2024/03/19 11:29:24;;;;;;;7.90;3.77;;;25.50;49.00;;;;;;5072855;28;20461;-56
2024/03/19 11:31:51;;;;;;;5.27;3.40;;;25.70;46.70;;;;;;5072652;28;20512;-56
2024/03/19 11:34:19;;;;;;;6.97;3.97;;;25.90;46.60;;;;;;5075184;28;20818;-56
2024/03/19 11:36:46;;;;;;;6.47;3.30;;;26.10;46.10;;;;;;5076235;28;20810;-56
2024/03/19 11:39:13;;;;;;;6.47;4.60;;;26.20;45.90;;;;;;5075956;28;20869;-56
2024/03/19 11:41:40;;;;;;;9.27;4.77;;;26.20;45.40;;;;;;5075988;28;21081;-56
2024/03/19 11:44:08;;;;;;;5.20;3.27;;;26.20;46.10;;;;;;5076270;28;20436;-56
2024/03/19 11:46:36;;;;;;;5.27;3.33;;;26.40;46.80;;;;;;5076169;28;20539;-54
2024/03/19 11:49:04;;;;;;;4.97;2.90;;;26.70;46.70;;;;;;5076111;28;20476;-54
2024/03/19 11:51:30;;;;;;;7.57;3.60;;;26.90;45.50;;;;;;5076159;28;20436;-54
2024/03/19 11:54:01;;;;;;;7.03;3.83;;;27.20;44.00;;;;;;5075738;28;20450;-54
2024/03/19 11:56:28;;;;;;;4.40;3.13;;;27.50;42.50;;;;;;5075841;28;20457;-55
2024/03/19 11:58:56;;;;;;;6.20;3.67;;;27.60;42.10;;;;;;5076007;28;20471;-54
2024/03/19 12:01:23;;;;;;;5.50;3.13;;;28.00;41.30;;;;;;5075582;28;20480;-54
2024/03/19 12:03:51;;;;;;;8.97;4.00;;;28.60;41.90;;;;;;5075947;28;20447;-55
2024/03/19 12:06:18;;;;;;;6.67;2.87;;;29.10;39.30;;;;;;5075916;28;20445;-55
2024/03/19 12:08:45;;;;;;;5.50;2.53;;;29.50;36.90;;;;;;5075705;28;20460;-55
2024/03/19 12:11:14;;;;;;;7.87;2.70;;;29.80;36.00;;;;;;5075474;28;20958;-55
2024/03/19 12:13:41;;;;;;;4.63;2.33;;;30.10;36.10;;;;;;5075444;28;20448;-55
2024/03/19 12:16:10;;;;;;;4.70;2.33;;;30.40;34.70;;;;;;5075473;28;20861;-55
2024/03/19 12:18:37;;;;;;;5.57;2.50;;;30.60;33.40;;;;;;5075661;28;20470;-55
2024/03/19 12:21:05;;;;;;;3.70;2.57;;;30.80;34.50;;;;;;5075303;28;20479;-55
2024/03/19 12:23:32;;;;;;;5.33;2.60;;;31.10;33.00;;;;;;5075671;28;20534;-55
2024/03/19 12:25:59;;;;;;;5.00;2.60;;;31.30;33.30;;;;;;5075297;28;20454;-55
2024/03/19 12:28:26;;;;;;;7.07;2.20;;;31.70;31.30;;;;;;5075428;28;20468;-55
2024/03/19 12:30:57;;;;;;;5.00;1.87;;;32.20;31.60;;;;;;5075157;28;20986;-55
2024/03/19 12:33:37;;;;;;;5.53;2.17;;;32.80;31.30;;;;;;5075165;28;20806;-55
2024/03/19 12:36:07;;;;;;;4.67;1.80;;;33.40;29.00;;;;;;5076684;28;20189;-55
2024/03/19 12:38:34;;;;;;;6.27;1.83;;;34.10;28.90;;;;;;5075641;28;20222;-55
2024/03/19 12:41:01;;;;;;;2.85;1.85;;;34.60;27.80;;;;;;5075193;28;20208;-55
2024/03/19 12:43:28;;;;;;;6.68;2.55;;;35.10;26.60;;;;;;5075318;28;20256;-55